sensor_id;sensor_type;location;lat;lon;timestamp;P1;durP1;ratioP1;P2;durP2;ratioP2
22774;SDS011;11554;51.106;3.684;2024-02-15T00:00:00;13.60;;;4.70;;
22774;SDS011;11554;51.106;3.684;2024-02-15T00:05:00;15.20;;;4.80;;
22774;SDS011;11554;51.106;3.684;2024-02-15T00:10:00;15.20;;;4.80;;
22774;SDS011;11554;51.106;3.684;2024-02-15T00:15:00;13.70;;;4.30;;
22774;SDS011;11554;51.106;3.684;2024-02-15T00:20:00;13.70;;;4.30;;
22774;SDS011;11554;51.106;3.684;2024-02-15T00:25:00;16.30;;;4.50;;
22774;SDS011;11554;51.106;3.684;2024-02-15T00:30:00;16.30;;;4.50;;
22774;SDS011;11554;51.106;3.684;2024-02-15T00:35:00;13.60;;;4.20;;
22774;SDS011;11554;51.106;3.684;2024-02-15T00:40:00;13.60;;;4.20;;
22774;SDS011;11554;51.106;3.684;2024-02-15T00:45:00;12.40;;;4.30;;
22774;SDS011;11554;51.106;3.684;2024-02-15T00:50:00;12.40;;;4.30;;
22774;SDS011;11554;51.106;3.684;2024-02-15T00:55:00;14.30;;;4.20;;
22774;SDS011;11554;51.106;3.684;2024-02-15T01:00:00;14.30;;;4.20;;
22774;SDS011;11554;51.106;3.684;2024-02-15T01:05:00;15.30;;;4.40;;
22774;SDS011;11554;51.106;3.684;2024-02-15T01:10:00;15.30;;;4.40;;
22774;SDS011;11554;51.106;3.684;2024-02-15T01:15:00;13.10;;;4.20;;
22774;SDS011;11554;51.106;3.684;2024-02-15T01:20:00;13.10;;;4.20;;
22774;SDS011;11554;51.106;3.684;2024-02-15T01:25:00;15.80;;;4.30;;
22774;SDS011;11554;51.106;3.684;2024-02-15T01:30:00;15.80;;;4.30;;
22774;SDS011;11554;51.106;3.684;2024-02-15T01:35:00;14.30;;;4.60;;
22774;SDS011;11554;51.106;3.684;2024-02-15T01:40:00;14.30;;;4.60;;
22774;SDS011;11554;51.106;3.684;2024-02-15T01:45:00;14.20;;;4.30;;
22774;SDS011;11554;51.106;3.684;2024-02-15T01:50:00;14.20;;;4.30;;
22774;SDS011;11554;51.106;3.684;2024-02-15T01:55:02;12.60;;;4.40;;
22774;SDS011;11554;51.106;3.684;2024-02-15T02:00:00;12.60;;;4.40;;
22774;SDS011;11554;51.106;3.684;2024-02-15T02:05:00;13.40;;;4.80;;
22774;SDS011;11554;51.106;3.684;2024-02-15T02:10:00;13.40;;;4.80;;
22774;SDS011;11554;51.106;3.684;2024-02-15T02:15:00;13.50;;;4.80;;
22774;SDS011;11554;51.106;3.684;2024-02-15T02:20:00;13.50;;;4.80;;
22774;SDS011;11554;51.106;3.684;2024-02-15T02:25:02;11.10;;;5.00;;
22774;SDS011;11554;51.106;3.684;2024-02-15T02:30:00;11.10;;;5.00;;
22774;SDS011;11554;51.106;3.684;2024-02-15T02:35:00;11.20;;;4.30;;
22774;SDS011;11554;51.106;3.684;2024-02-15T02:40:00;11.20;;;4.30;;
22774;SDS011;11554;51.106;3.684;2024-02-15T02:45:00;13.30;;;4.50;;
22774;SDS011;11554;51.106;3.684;2024-02-15T02:50:00;13.30;;;4.50;;
22774;SDS011;11554;51.106;3.684;2024-02-15T02:55:00;12.90;;;4.00;;
22774;SDS011;11554;51.106;3.684;2024-02-15T03:00:00;12.90;;;4.00;;
22774;SDS011;11554;51.106;3.684;2024-02-15T03:05:01;14.20;;;4.40;;
22774;SDS011;11554;51.106;3.684;2024-02-15T03:10:00;14.20;;;4.40;;
22774;SDS011;11554;51.106;3.684;2024-02-15T03:15:00;9.90;;;3.90;;
22774;SDS011;11554;51.106;3.684;2024-02-15T03:20:01;9.90;;;3.90;;
22774;SDS011;11554;51.106;3.684;2024-02-15T03:25:00;11.40;;;4.60;;
22774;SDS011;11554;51.106;3.684;2024-02-15T03:30:00;11.40;;;4.60;;
22774;SDS011;11554;51.106;3.684;2024-02-15T03:35:00;11.20;;;4.20;;
22774;SDS011;11554;51.106;3.684;2024-02-15T03:40:00;11.20;;;4.20;;
22774;SDS011;11554;51.106;3.684;2024-02-15T03:45:00;9.90;;;4.10;;
22774;SDS011;11554;51.106;3.684;2024-02-15T03:50:00;9.90;;;4.10;;
22774;SDS011;11554;51.106;3.684;2024-02-15T03:55:00;11.30;;;4.30;;
22774;SDS011;11554;51.106;3.684;2024-02-15T04:00:00;11.30;;;4.30;;
22774;SDS011;11554;51.106;3.684;2024-02-15T04:05:00;10.10;;;4.20;;
22774;SDS011;11554;51.106;3.684;2024-02-15T04:10:00;10.10;;;4.20;;
22774;SDS011;11554;51.106;3.684;2024-02-15T04:15:00;9.00;;;4.20;;
22774;SDS011;11554;51.106;3.684;2024-02-15T04:20:00;9.00;;;4.20;;
22774;SDS011;11554;51.106;3.684;2024-02-15T04:25:00;9.90;;;4.20;;
22774;SDS011;11554;51.106;3.684;2024-02-15T04:30:00;9.90;;;4.20;;
22774;SDS011;11554;51.106;3.684;2024-02-15T04:35:00;12.40;;;4.60;;
22774;SDS011;11554;51.106;3.684;2024-02-15T04:40:00;12.40;;;4.60;;
22774;SDS011;11554;51.106;3.684;2024-02-15T04:45:00;13.10;;;4.50;;
22774;SDS011;11554;51.106;3.684;2024-02-15T04:50:00;13.10;;;4.50;;
22774;SDS011;11554;51.106;3.684;2024-02-15T04:55:00;16.00;;;5.30;;
22774;SDS011;11554;51.106;3.684;2024-02-15T05:00:00;16.00;;;5.30;;
22774;SDS011;11554;51.106;3.684;2024-02-15T05:05:00;11.10;;;4.70;;
22774;SDS011;11554;51.106;3.684;2024-02-15T05:10:00;11.10;;;4.70;;
22774;SDS011;11554;51.106;3.684;2024-02-15T05:15:00;13.00;;;4.90;;
22774;SDS011;11554;51.106;3.684;2024-02-15T05:20:00;13.00;;;4.90;;
22774;SDS011;11554;51.106;3.684;2024-02-15T05:25:00;12.20;;;4.70;;
22774;SDS011;11554;51.106;3.684;2024-02-15T05:30:00;12.20;;;4.70;;
22774;SDS011;11554;51.106;3.684;2024-02-15T05:35:00;13.00;;;4.90;;
22774;SDS011;11554;51.106;3.684;2024-02-15T05:40:00;13.00;;;4.90;;
22774;SDS011;11554;51.106;3.684;2024-02-15T05:50:00;9.70;;;4.30;;
22774;SDS011;11554;51.106;3.684;2024-02-15T05:55:00;9.40;;;4.00;;
22774;SDS011;11554;51.106;3.684;2024-02-15T06:00:00;9.40;;;4.00;;
22774;SDS011;11554;51.106;3.684;2024-02-15T06:05:00;12.00;;;4.00;;
22774;SDS011;11554;51.106;3.684;2024-02-15T06:10:00;12.00;;;4.00;;
22774;SDS011;11554;51.106;3.684;2024-02-15T06:15:03;9.20;;;3.80;;
22774;SDS011;11554;51.106;3.684;2024-02-15T06:20:00;9.20;;;3.80;;
22774;SDS011;11554;51.106;3.684;2024-02-15T06:25:00;9.50;;;3.40;;
22774;SDS011;11554;51.106;3.684;2024-02-15T06:30:00;9.50;;;3.40;;
22774;SDS011;11554;51.106;3.684;2024-02-15T06:35:00;9.00;;;3.40;;
22774;SDS011;11554;51.106;3.684;2024-02-15T06:40:00;9.00;;;3.40;;
22774;SDS011;11554;51.106;3.684;2024-02-15T06:45:00;6.20;;;2.80;;
22774;SDS011;11554;51.106;3.684;2024-02-15T06:50:00;6.20;;;2.80;;
22774;SDS011;11554;51.106;3.684;2024-02-15T06:55:00;12.30;;;3.40;;
22774;SDS011;11554;51.106;3.684;2024-02-15T07:00:00;12.30;;;3.40;;
22774;SDS011;11554;51.106;3.684;2024-02-15T07:05:00;5.70;;;2.80;;
22774;SDS011;11554;51.106;3.684;2024-02-15T07:10:00;5.70;;;2.80;;
22774;SDS011;11554;51.106;3.684;2024-02-15T07:15:00;9.30;;;3.20;;
22774;SDS011;11554;51.106;3.684;2024-02-15T07:20:00;9.30;;;3.20;;
22774;SDS011;11554;51.106;3.684;2024-02-15T07:25:00;9.20;;;3.30;;
22774;SDS011;11554;51.106;3.684;2024-02-15T07:30:00;9.20;;;3.30;;
22774;SDS011;11554;51.106;3.684;2024-02-15T07:35:00;7.60;;;2.90;;
22774;SDS011;11554;51.106;3.684;2024-02-15T07:40:00;7.60;;;2.90;;
22774;SDS011;11554;51.106;3.684;2024-02-15T07:45:00;6.20;;;2.70;;
22774;SDS011;11554;51.106;3.684;2024-02-15T07:50:00;6.20;;;2.70;;
22774;SDS011;11554;51.106;3.684;2024-02-15T07:55:00;7.70;;;2.90;;
22774;SDS011;11554;51.106;3.684;2024-02-15T08:00:00;7.70;;;2.90;;
22774;SDS011;11554;51.106;3.684;2024-02-15T08:05:00;8.20;;;3.00;;
22774;SDS011;11554;51.106;3.684;2024-02-15T08:10:00;8.20;;;3.00;;
22774;SDS011;11554;51.106;3.684;2024-02-15T08:15:00;7.20;;;2.80;;
22774;SDS011;11554;51.106;3.684;2024-02-15T08:20:00;7.20;;;2.80;;
22774;SDS011;11554;51.106;3.684;2024-02-15T08:25:00;8.90;;;2.90;;
22774;SDS011;11554;51.106;3.684;2024-02-15T08:30:00;8.90;;;2.90;;
22774;SDS011;11554;51.106;3.684;2024-02-15T08:35:00;7.60;;;2.80;;
22774;SDS011;11554;51.106;3.684;2024-02-15T08:40:00;7.60;;;2.80;;
22774;SDS011;11554;51.106;3.684;2024-02-15T08:45:00;8.00;;;3.10;;
22774;SDS011;11554;51.106;3.684;2024-02-15T08:50:00;8.00;;;3.10;;
22774;SDS011;11554;51.106;3.684;2024-02-15T08:55:00;8.10;;;3.10;;
22774;SDS011;11554;51.106;3.684;2024-02-15T09:00:02;8.10;;;3.10;;
22774;SDS011;11554;51.106;3.684;2024-02-15T09:05:00;8.00;;;2.80;;
22774;SDS011;11554;51.106;3.684;2024-02-15T09:10:00;8.00;;;2.80;;
22774;SDS011;11554;51.106;3.684;2024-02-15T09:15:00;9.30;;;2.80;;
22774;SDS011;11554;51.106;3.684;2024-02-15T09:20:00;9.30;;;2.80;;
22774;SDS011;11554;51.106;3.684;2024-02-15T09:25:00;10.00;;;2.70;;
22774;SDS011;11554;51.106;3.684;2024-02-15T09:30:01;10.00;;;2.70;;
22774;SDS011;11554;51.106;3.684;2024-02-15T09:35:00;7.80;;;2.80;;
22774;SDS011;11554;51.106;3.684;2024-02-15T09:40:00;7.80;;;2.80;;
22774;SDS011;11554;51.106;3.684;2024-02-15T09:45:00;7.30;;;2.50;;
22774;SDS011;11554;51.106;3.684;2024-02-15T09:50:00;7.30;;;2.50;;
22774;SDS011;11554;51.106;3.684;2024-02-15T09:55:02;9.40;;;2.70;;
22774;SDS011;11554;51.106;3.684;2024-02-15T10:00:00;9.40;;;2.70;;
22774;SDS011;11554;51.106;3.684;2024-02-15T10:05:00;9.60;;;2.60;;
22774;SDS011;11554;51.106;3.684;2024-02-15T10:15:00;6.30;;;2.30;;
22774;SDS011;11554;51.106;3.684;2024-02-15T10:20:05;6.30;;;2.30;;
22774;SDS011;11554;51.106;3.684;2024-02-15T10:35:00;6.60;;;2.00;;
22774;SDS011;11554;51.106;3.684;2024-02-15T10:40:04;6.60;;;2.00;;
22774;SDS011;11554;51.106;3.684;2024-02-15T10:45:03;5.40;;;2.00;;
22774;SDS011;11554;51.106;3.684;2024-02-15T10:50:00;5.40;;;2.00;;
22774;SDS011;11554;51.106;3.684;2024-02-15T10:55:03;6.00;;;2.10;;
22774;SDS011;11554;51.106;3.684;2024-02-15T11:00:02;6.00;;;2.10;;
22774;SDS011;11554;51.106;3.684;2024-02-15T11:05:02;5.30;;;1.80;;
22774;SDS011;11554;51.106;3.684;2024-02-15T11:10:00;5.30;;;1.80;;
22774;SDS011;11554;51.106;3.684;2024-02-15T11:15:00;6.30;;;2.00;;
22774;SDS011;11554;51.106;3.684;2024-02-15T11:20:00;6.30;;;2.00;;
22774;SDS011;11554;51.106;3.684;2024-02-15T11:25:00;6.00;;;2.00;;
22774;SDS011;11554;51.106;3.684;2024-02-15T11:30:01;6.00;;;2.00;;
22774;SDS011;11554;51.106;3.684;2024-02-15T11:35:04;8.10;;;1.80;;
22774;SDS011;11554;51.106;3.684;2024-02-15T11:40:00;8.10;;;1.80;;
22774;SDS011;11554;51.106;3.684;2024-02-15T11:45:03;5.20;;;1.80;;
22774;SDS011;11554;51.106;3.684;2024-02-15T11:50:01;5.20;;;1.80;;
22774;SDS011;11554;51.106;3.684;2024-02-15T11:55:08;6.90;;;1.70;;
22774;SDS011;11554;51.106;3.684;2024-02-15T12:00:00;6.90;;;1.70;;
22774;SDS011;11554;51.106;3.684;2024-02-15T12:05:00;7.40;;;1.60;;
22774;SDS011;11554;51.106;3.684;2024-02-15T12:10:00;7.40;;;1.60;;
22774;SDS011;11554;51.106;3.684;2024-02-15T12:15:00;6.70;;;1.80;;
22774;SDS011;11554;51.106;3.684;2024-02-15T12:20:01;6.70;;;1.80;;
22774;SDS011;11554;51.106;3.684;2024-02-15T12:25:02;4.70;;;1.80;;
22774;SDS011;11554;51.106;3.684;2024-02-15T12:30:00;4.70;;;1.80;;
22774;SDS011;11554;51.106;3.684;2024-02-15T12:35:10;5.20;;;1.80;;
22774;SDS011;11554;51.106;3.684;2024-02-15T12:40:09;5.20;;;1.80;;
22774;SDS011;11554;51.106;3.684;2024-02-15T12:45:00;5.20;;;1.70;;
22774;SDS011;11554;51.106;3.684;2024-02-15T12:55:08;7.10;;;1.90;;
22774;SDS011;11554;51.106;3.684;2024-02-15T13:00:00;7.10;;;1.90;;
22774;SDS011;11554;51.106;3.684;2024-02-15T13:05:00;6.40;;;1.90;;
22774;SDS011;11554;51.106;3.684;2024-02-15T13:10:00;6.40;;;1.90;;
22774;SDS011;11554;51.106;3.684;2024-02-15T13:15:00;7.40;;;2.00;;
22774;SDS011;11554;51.106;3.684;2024-02-15T13:20:00;7.40;;;2.00;;
22774;SDS011;11554;51.106;3.684;2024-02-15T13:25:00;5.80;;;1.60;;
22774;SDS011;11554;51.106;3.684;2024-02-15T13:30:00;5.80;;;1.60;;
22774;SDS011;11554;51.106;3.684;2024-02-15T13:35:00;4.00;;;1.70;;
22774;SDS011;11554;51.106;3.684;2024-02-15T13:40:00;4.00;;;1.70;;
22774;SDS011;11554;51.106;3.684;2024-02-15T13:45:00;6.20;;;1.70;;
22774;SDS011;11554;51.106;3.684;2024-02-15T13:50:00;6.20;;;1.70;;
22774;SDS011;11554;51.106;3.684;2024-02-15T13:55:00;5.90;;;2.10;;
22774;SDS011;11554;51.106;3.684;2024-02-15T14:00:00;5.90;;;2.10;;
22774;SDS011;11554;51.106;3.684;2024-02-15T14:05:00;11.10;;;4.00;;
22774;SDS011;11554;51.106;3.684;2024-02-15T14:10:00;11.10;;;4.00;;
22774;SDS011;11554;51.106;3.684;2024-02-15T14:15:00;10.30;;;4.10;;
22774;SDS011;11554;51.106;3.684;2024-02-15T14:20:00;10.30;;;4.10;;
22774;SDS011;11554;51.106;3.684;2024-02-15T14:25:00;9.10;;;3.20;;
22774;SDS011;11554;51.106;3.684;2024-02-15T14:30:00;9.10;;;3.20;;
22774;SDS011;11554;51.106;3.684;2024-02-15T14:35:00;8.80;;;2.60;;
22774;SDS011;11554;51.106;3.684;2024-02-15T14:40:00;8.80;;;2.60;;
22774;SDS011;11554;51.106;3.684;2024-02-15T14:45:00;5.40;;;1.90;;
22774;SDS011;11554;51.106;3.684;2024-02-15T14:50:00;5.40;;;1.90;;
22774;SDS011;11554;51.106;3.684;2024-02-15T14:55:00;5.50;;;2.40;;
22774;SDS011;11554;51.106;3.684;2024-02-15T15:00:00;5.50;;;2.40;;
22774;SDS011;11554;51.106;3.684;2024-02-15T15:05:00;7.50;;;2.40;;
22774;SDS011;11554;51.106;3.684;2024-02-15T15:10:00;7.50;;;2.40;;
22774;SDS011;11554;51.106;3.684;2024-02-15T15:15:00;7.80;;;3.40;;
22774;SDS011;11554;51.106;3.684;2024-02-15T15:20:00;7.80;;;3.40;;
22774;SDS011;11554;51.106;3.684;2024-02-15T15:25:00;9.30;;;4.40;;
22774;SDS011;11554;51.106;3.684;2024-02-15T15:30:00;9.30;;;4.40;;
22774;SDS011;11554;51.106;3.684;2024-02-15T15:35:00;10.00;;;3.90;;
22774;SDS011;11554;51.106;3.684;2024-02-15T15:40:00;10.00;;;3.90;;
22774;SDS011;11554;51.106;3.684;2024-02-15T15:45:00;9.80;;;4.30;;
22774;SDS011;11554;51.106;3.684;2024-02-15T15:50:00;9.80;;;4.30;;
22774;SDS011;11554;51.106;3.684;2024-02-15T15:55:00;9.40;;;4.20;;
22774;SDS011;11554;51.106;3.684;2024-02-15T16:00:00;9.40;;;4.20;;
22774;SDS011;11554;51.106;3.684;2024-02-15T16:05:00;8.10;;;3.60;;
22774;SDS011;11554;51.106;3.684;2024-02-15T16:10:00;8.10;;;3.60;;
22774;SDS011;11554;51.106;3.684;2024-02-15T16:15:00;10.70;;;3.30;;
22774;SDS011;11554;51.106;3.684;2024-02-15T16:20:01;10.70;;;3.30;;
22774;SDS011;11554;51.106;3.684;2024-02-15T16:25:01;10.00;;;4.10;;
22774;SDS011;11554;51.106;3.684;2024-02-15T16:30:00;10.00;;;4.10;;
22774;SDS011;11554;51.106;3.684;2024-02-15T16:35:00;6.40;;;2.90;;
22774;SDS011;11554;51.106;3.684;2024-02-15T16:40:00;6.40;;;2.90;;
22774;SDS011;11554;51.106;3.684;2024-02-15T16:45:00;7.00;;;3.20;;
22774;SDS011;11554;51.106;3.684;2024-02-15T16:50:00;7.00;;;3.20;;
22774;SDS011;11554;51.106;3.684;2024-02-15T16:55:00;12.90;;;7.30;;
22774;SDS011;11554;51.106;3.684;2024-02-15T17:00:00;12.90;;;7.30;;
22774;SDS011;11554;51.106;3.684;2024-02-15T17:05:00;9.90;;;3.50;;
22774;SDS011;11554;51.106;3.684;2024-02-15T17:10:00;9.90;;;3.50;;
22774;SDS011;11554;51.106;3.684;2024-02-15T17:15:00;10.40;;;4.80;;
22774;SDS011;11554;51.106;3.684;2024-02-15T17:20:00;10.40;;;4.80;;
22774;SDS011;11554;51.106;3.684;2024-02-15T17:25:00;8.80;;;4.10;;
22774;SDS011;11554;51.106;3.684;2024-02-15T17:30:00;8.80;;;4.10;;
22774;SDS011;11554;51.106;3.684;2024-02-15T17:35:00;9.90;;;5.90;;
22774;SDS011;11554;51.106;3.684;2024-02-15T17:40:00;9.90;;;5.90;;
22774;SDS011;11554;51.106;3.684;2024-02-15T17:45:00;8.20;;;4.20;;
22774;SDS011;11554;51.106;3.684;2024-02-15T17:50:00;8.20;;;4.20;;
22774;SDS011;11554;51.106;3.684;2024-02-15T17:55:00;10.20;;;5.20;;
22774;SDS011;11554;51.106;3.684;2024-02-15T18:00:00;10.20;;;5.20;;
22774;SDS011;11554;51.106;3.684;2024-02-15T18:05:00;9.60;;;4.20;;
22774;SDS011;11554;51.106;3.684;2024-02-15T18:10:00;9.60;;;4.20;;
22774;SDS011;11554;51.106;3.684;2024-02-15T18:15:00;9.90;;;4.70;;
22774;SDS011;11554;51.106;3.684;2024-02-15T18:20:00;9.90;;;4.70;;
22774;SDS011;11554;51.106;3.684;2024-02-15T18:25:00;12.50;;;4.90;;
22774;SDS011;11554;51.106;3.684;2024-02-15T18:30:00;12.50;;;4.90;;
22774;SDS011;11554;51.106;3.684;2024-02-15T18:35:00;13.10;;;5.60;;
22774;SDS011;11554;51.106;3.684;2024-02-15T18:40:00;13.10;;;5.60;;
22774;SDS011;11554;51.106;3.684;2024-02-15T18:45:01;10.40;;;4.80;;
22774;SDS011;11554;51.106;3.684;2024-02-15T18:50:01;10.40;;;4.80;;
22774;SDS011;11554;51.106;3.684;2024-02-15T18:55:00;10.10;;;4.40;;
22774;SDS011;11554;51.106;3.684;2024-02-15T19:00:00;10.10;;;4.40;;
22774;SDS011;11554;51.106;3.684;2024-02-15T19:05:00;9.50;;;4.30;;
22774;SDS011;11554;51.106;3.684;2024-02-15T19:10:00;9.50;;;4.30;;
22774;SDS011;11554;51.106;3.684;2024-02-15T19:15:00;9.20;;;4.30;;
22774;SDS011;11554;51.106;3.684;2024-02-15T19:20:00;9.20;;;4.30;;
22774;SDS011;11554;51.106;3.684;2024-02-15T19:25:00;7.10;;;3.30;;
22774;SDS011;11554;51.106;3.684;2024-02-15T19:30:00;7.10;;;3.30;;
22774;SDS011;11554;51.106;3.684;2024-02-15T19:35:00;6.30;;;2.90;;
22774;SDS011;11554;51.106;3.684;2024-02-15T19:40:00;6.30;;;2.90;;
22774;SDS011;11554;51.106;3.684;2024-02-15T19:45:00;6.00;;;2.70;;
22774;SDS011;11554;51.106;3.684;2024-02-15T19:50:00;6.00;;;2.70;;
22774;SDS011;11554;51.106;3.684;2024-02-15T19:55:00;5.40;;;2.90;;
22774;SDS011;11554;51.106;3.684;2024-02-15T20:00:00;5.40;;;2.90;;
22774;SDS011;11554;51.106;3.684;2024-02-15T20:05:00;5.60;;;2.80;;
22774;SDS011;11554;51.106;3.684;2024-02-15T20:10:00;5.60;;;2.80;;
22774;SDS011;11554;51.106;3.684;2024-02-15T20:15:01;6.60;;;2.90;;
22774;SDS011;11554;51.106;3.684;2024-02-15T20:20:00;6.60;;;2.90;;
22774;SDS011;11554;51.106;3.684;2024-02-15T20:25:00;5.70;;;2.70;;
22774;SDS011;11554;51.106;3.684;2024-02-15T20:30:00;5.70;;;2.70;;
22774;SDS011;11554;51.106;3.684;2024-02-15T20:35:00;4.50;;;2.60;;
22774;SDS011;11554;51.106;3.684;2024-02-15T20:40:00;4.50;;;2.60;;
22774;SDS011;11554;51.106;3.684;2024-02-15T20:45:00;7.30;;;2.80;;
22774;SDS011;11554;51.106;3.684;2024-02-15T20:50:00;7.30;;;2.80;;
22774;SDS011;11554;51.106;3.684;2024-02-15T20:55:00;4.60;;;2.50;;
22774;SDS011;11554;51.106;3.684;2024-02-15T21:00:00;4.60;;;2.50;;
22774;SDS011;11554;51.106;3.684;2024-02-15T21:05:00;4.00;;;2.00;;
22774;SDS011;11554;51.106;3.684;2024-02-15T21:10:00;4.00;;;2.00;;
22774;SDS011;11554;51.106;3.684;2024-02-15T21:15:00;5.20;;;2.60;;
22774;SDS011;11554;51.106;3.684;2024-02-15T21:20:00;5.20;;;2.60;;
22774;SDS011;11554;51.106;3.684;2024-02-15T21:25:00;4.70;;;2.70;;
22774;SDS011;11554;51.106;3.684;2024-02-15T21:30:01;4.70;;;2.70;;
22774;SDS011;11554;51.106;3.684;2024-02-15T21:35:00;5.80;;;3.00;;
22774;SDS011;11554;51.106;3.684;2024-02-15T21:40:01;5.80;;;3.00;;
22774;SDS011;11554;51.106;3.684;2024-02-15T21:45:00;6.40;;;3.00;;
22774;SDS011;11554;51.106;3.684;2024-02-15T21:50:01;6.40;;;3.00;;
22774;SDS011;11554;51.106;3.684;2024-02-15T21:55:00;5.70;;;3.00;;
22774;SDS011;11554;51.106;3.684;2024-02-15T22:00:00;5.70;;;3.00;;
22774;SDS011;11554;51.106;3.684;2024-02-15T22:05:00;5.50;;;3.00;;
22774;SDS011;11554;51.106;3.684;2024-02-15T22:10:01;5.50;;;3.00;;
22774;SDS011;11554;51.106;3.684;2024-02-15T22:15:00;7.20;;;3.30;;
22774;SDS011;11554;51.106;3.684;2024-02-15T22:20:00;7.20;;;3.30;;
22774;SDS011;11554;51.106;3.684;2024-02-15T22:25:00;6.20;;;3.10;;
22774;SDS011;11554;51.106;3.684;2024-02-15T22:30:00;6.20;;;3.10;;
22774;SDS011;11554;51.106;3.684;2024-02-15T22:35:00;5.60;;;3.10;;
22774;SDS011;11554;51.106;3.684;2024-02-15T22:40:00;5.60;;;3.10;;
22774;SDS011;11554;51.106;3.684;2024-02-15T22:45:00;5.40;;;3.10;;
22774;SDS011;11554;51.106;3.684;2024-02-15T22:50:00;5.40;;;3.10;;
22774;SDS011;11554;51.106;3.684;2024-02-15T22:55:00;7.20;;;3.20;;
22774;SDS011;11554;51.106;3.684;2024-02-15T23:00:00;7.20;;;3.20;;
22774;SDS011;11554;51.106;3.684;2024-02-15T23:05:00;5.70;;;3.30;;
22774;SDS011;11554;51.106;3.684;2024-02-15T23:10:00;5.70;;;3.30;;
22774;SDS011;11554;51.106;3.684;2024-02-15T23:15:00;5.00;;;2.90;;
22774;SDS011;11554;51.106;3.684;2024-02-15T23:20:00;5.00;;;2.90;;
22774;SDS011;11554;51.106;3.684;2024-02-15T23:25:00;7.00;;;3.10;;
22774;SDS011;11554;51.106;3.684;2024-02-15T23:30:00;7.00;;;3.10;;
22774;SDS011;11554;51.106;3.684;2024-02-15T23:35:00;5.70;;;3.50;;
22774;SDS011;11554;51.106;3.684;2024-02-15T23:40:00;5.70;;;3.50;;
22774;SDS011;11554;51.106;3.684;2024-02-15T23:45:00;6.20;;;3.20;;
22774;SDS011;11554;51.106;3.684;2024-02-15T23:50:00;6.20;;;3.20;;
22774;SDS011;11554;51.106;3.684;2024-02-15T23:55:00;5.80;;;3.20;;
